Time;durP1;ratioP1;P1;durP2;ratioP2;P2;SDS_P1;SDS_P2;PMS_P1;PMS_P2;Temp;Humidity;BMP_temperature;BMP_pressure;BME280_temperature;BME280_humidity;BME280_pressure;Samples;Min_cycle;Max_cycle;Signal;HPM_P1;HPM_P2
2021/11/06 00:00:27;;;;;;;0.30;0.30;;;;;;;7.11;100.00;101624.25;5050474;28;20501;-82
2021/11/06 00:03:00;;;;;;;0.20;0.20;;;;;;;7.06;100.00;101624.97;5078838;28;20049;-82
2021/11/06 00:05:34;;;;;;;0.20;0.20;;;;;;;6.99;100.00;101629.66;5075506;28;20048;-84
2021/11/06 00:08:07;;;;;;;0.30;0.30;;;;;;;7.01;100.00;101624.03;5074047;28;20142;-84
2021/11/06 00:10:42;;;;;;;0.30;0.30;;;;;;;7.06;100.00;101627.69;5050189;28;20045;-83
2021/11/06 00:13:17;;;;;;;0.30;0.30;;;;;;;7.05;100.00;101615.19;5066710;28;20060;-81
2021/11/06 00:15:45;;;;;;;0.30;0.30;;;;;;;7.06;100.00;101626.88;5050091;28;20052;-83
2021/11/06 00:18:19;;;;;;;0.20;0.20;;;;;;;7.05;100.00;101614.38;5081262;28;20056;-84
2021/11/06 00:20:47;;;;;;;0.25;0.25;;;;;;;7.05;100.00;101625.19;5081528;28;20057;-85
2021/11/06 00:23:20;;;;;;;0.30;0.30;;;;;;;6.98;100.00;101626.13;5080812;28;20048;-83
2021/11/06 00:25:54;;;;;;;0.20;0.20;;;;;;;7.05;100.00;101636.84;5070277;28;20043;-84
2021/11/06 00:28:28;;;;;;;0.30;0.30;;;;;;;7.08;100.00;101633.66;5079955;28;20048;-85
2021/11/06 00:30:56;;;;;;;0.20;0.20;;;;;;;7.07;100.00;101637.44;5091531;28;20051;-84
2021/11/06 00:33:56;;;;;;;0.25;0.25;;;;;;;7.06;100.00;101637.69;5087419;28;20063;-83
2021/11/06 00:36:29;;;;;;;0.30;0.30;;;;;;;7.16;100.00;101640.63;5068273;28;20053;-81
2021/11/06 00:38:57;;;;;;;0.20;0.20;;;;;;;7.03;100.00;101644.38;5053835;28;20049;-82
2021/11/06 00:41:27;;;;;;;0.20;0.20;;;;;;;7.03;100.00;101647.09;5054674;28;20045;-81
2021/11/06 00:44:00;;;;;;;0.20;0.20;;;;;;;6.98;100.00;101642.34;5070315;28;20616;-83
2021/11/06 00:46:34;;;;;;;0.20;0.20;;;;;;;6.97;100.00;101631.78;5066868;28;20415;-82
2021/11/06 00:49:07;;;;;;;0.30;0.30;;;;;;;7.04;100.00;101647.91;5072797;28;20044;-82
2021/11/06 00:51:40;;;;;;;0.30;0.30;;;;;;;7.00;100.00;101644.00;5067219;28;20052;-82
2021/11/06 00:54:09;;;;;;;0.25;0.25;;;;;;;7.10;100.00;101633.47;5064584;28;20412;-83
2021/11/06 00:56:44;;;;;;;0.20;0.20;;;;;;;6.99;100.00;101645.91;5084407;28;20397;-83
2021/11/06 00:59:19;;;;;;;0.28;0.28;;;;;;;7.00;100.00;101639.41;5067815;28;20047;-83
2021/11/06 01:01:52;;;;;;;0.20;0.20;;;;;;;6.95;100.00;101642.00;5070941;28;20056;-84
2021/11/06 01:04:25;;;;;;;0.30;0.30;;;;;;;7.02;100.00;101653.56;5073531;28;20044;-82
2021/11/06 01:06:58;;;;;;;0.20;0.20;;;;;;;6.96;100.00;101649.06;5088404;28;20048;-83
2021/11/06 01:09:32;;;;;;;0.20;0.20;;;;;;;7.01;100.00;101643.78;5072836;28;20048;-81
2021/11/06 01:12:07;;;;;;;0.20;0.20;;;;;;;6.94;100.00;101652.00;5071887;28;20049;-84
2021/11/06 01:14:40;;;;;;;0.30;0.30;;;;;;;6.99;100.00;101643.19;5072295;28;20057;-83
2021/11/06 01:17:14;;;;;;;0.30;0.30;;;;;;;6.97;100.00;101651.56;5086300;28;20052;-83
2021/11/06 01:19:47;;;;;;;0.30;0.30;;;;;;;6.92;100.00;101645.19;5067277;28;20053;-82
2021/11/06 01:22:20;;;;;;;0.30;0.30;;;;;;;6.96;100.00;101649.06;5083458;28;20064;-84
2021/11/06 01:24:54;;;;;;;0.22;0.22;;;;;;;6.91;100.00;101648.94;5067142;28;20401;-82
2021/11/06 01:27:29;;;;;;;0.20;0.20;;;;;;;6.95;100.00;101656.34;5063440;28;20040;-85
2021/11/06 01:30:03;;;;;;;0.20;0.20;;;;;;;6.92;100.00;101645.19;5069321;28;20047;-83
2021/11/06 01:32:37;;;;;;;0.22;0.22;;;;;;;6.90;100.00;101652.69;5072622;28;20044;-83
2021/11/06 01:35:12;;;;;;;0.20;0.20;;;;;;;6.87;100.00;101647.75;5067155;28;20040;-83
2021/11/06 01:37:46;;;;;;;0.20;0.20;;;;;;;6.83;100.00;101635.75;5101829;28;20060;-81
2021/11/06 01:40:19;;;;;;;0.30;0.30;;;;;;;6.81;100.00;101646.81;5073184;28;20385;-83
2021/11/06 01:42:54;;;;;;;0.30;0.30;;;;;;;6.88;100.00;101649.41;5070870;28;20061;-84
2021/11/06 01:45:27;;;;;;;0.20;0.20;;;;;;;6.86;100.00;101646.09;5071792;28;20055;-82
2021/11/06 01:48:00;;;;;;;0.20;0.20;;;;;;;6.89;100.00;101645.63;5071540;28;20048;-82
2021/11/06 01:50:34;;;;;;;0.30;0.30;;;;;;;6.66;100.00;101620.16;5087965;28;20047;-83
2021/11/06 01:53:07;;;;;;;0.20;0.20;;;;;;;6.70;100.00;101645.69;5072368;28;20059;-84
2021/11/06 01:55:40;;;;;;;0.20;0.20;;;;;;;6.78;100.00;101648.09;5092888;28;20052;-83
2021/11/06 01:58:16;;;;;;;0.20;0.20;;;;;;;6.86;100.00;101646.91;5089355;28;20088;-84
2021/11/06 02:00:49;;;;;;;0.30;0.30;;;;;;;6.78;100.00;101645.38;5083936;28;20052;-83
2021/11/06 02:03:22;;;;;;;0.20;0.20;;;;;;;6.73;100.00;101644.41;5083286;28;20057;-81
2021/11/06 02:05:55;;;;;;;0.28;0.28;;;;;;;6.71;100.00;101639.25;5067755;28;20049;-82
2021/11/06 02:08:29;;;;;;;0.22;0.22;;;;;;;6.68;100.00;101639.69;5066134;28;20045;-83
2021/11/06 02:10:57;;;;;;;0.30;0.30;;;;;;;6.63;100.00;101637.69;5068460;28;20052;-82
2021/11/06 02:13:32;;;;;;;0.30;0.30;;;;;;;6.70;100.00;101637.59;5070673;28;20643;-84
2021/11/06 02:16:05;;;;;;;0.20;0.20;;;;;;;6.68;100.00;101636.97;5065389;28;20056;-83
2021/11/06 02:18:39;;;;;;;0.20;0.20;;;;;;;6.67;100.00;101634.50;5104837;28;20048;-82
2021/11/06 02:21:14;;;;;;;0.30;0.30;;;;;;;6.62;100.00;101635.22;5070874;28;20048;-82
2021/11/06 02:23:47;;;;;;;0.30;0.30;;;;;;;6.73;100.00;101639.81;5067966;28;20055;-83
2021/11/06 02:26:17;;;;;;;0.20;0.20;;;;;;;6.66;100.00;101641.81;5087849;28;20051;-82
2021/11/06 02:28:54;;;;;;;0.20;0.20;;;;;;;6.75;100.00;101635.03;5071140;28;20140;-83
2021/11/06 02:31:27;;;;;;;0.20;0.20;;;;;;;6.64;100.00;101636.63;5066588;28;20051;-83
2021/11/06 02:34:00;;;;;;;0.30;0.30;;;;;;;6.71;100.00;101644.66;5076949;28;20068;-83
2021/11/06 02:36:35;;;;;;;0.30;0.30;;;;;;;6.71;100.00;101631.13;5067669;28;20535;-83
2021/11/06 02:39:10;;;;;;;0.20;0.20;;;;;;;6.73;100.00;101636.31;5066092;28;20049;-83
2021/11/06 02:41:44;;;;;;;0.20;0.20;;;;;;;6.76;100.00;101643.97;5057122;28;20500;-82
2021/11/06 02:44:14;;;;;;;0.20;0.20;;;;;;;6.76;100.00;101636.66;5069656;28;20048;-83
2021/11/06 02:46:43;;;;;;;0.30;0.30;;;;;;;6.74;100.00;101635.22;5064027;28;20527;-82
2021/11/06 02:49:11;;;;;;;0.22;0.22;;;;;;;6.75;100.00;101637.72;5066184;28;20041;-83
2021/11/06 02:51:45;;;;;;;0.20;0.20;;;;;;;6.78;100.00;101639.13;5057632;28;20055;-81
2021/11/06 02:54:19;;;;;;;0.22;0.22;;;;;;;6.76;100.00;101625.03;5072564;28;20067;-82
2021/11/06 02:56:52;;;;;;;0.20;0.20;;;;;;;6.81;100.00;101631.38;5069938;28;20044;-83
2021/11/06 02:59:20;;;;;;;0.20;0.20;;;;;;;6.84;100.00;101643.63;5071845;28;20040;-84
2021/11/06 03:01:53;;;;;;;0.30;0.30;;;;;;;6.87;100.00;101634.22;5071519;28;20067;-82
2021/11/06 03:04:27;;;;;;;0.20;0.20;;;;;;;6.85;100.00;101630.91;5064242;28;20400;-84
2021/11/06 03:07:01;;;;;;;0.20;0.20;;;;;;;6.79;100.00;101640.78;5071996;28;20043;-83
2021/11/06 03:09:38;;;;;;;0.20;0.20;;;;;;;6.86;100.00;101633.38;5062175;28;20041;-82
2021/11/06 03:12:08;;;;;;;0.22;0.22;;;;;;;6.80;100.00;101634.31;5067710;28;20052;-82
2021/11/06 03:14:43;;;;;;;0.20;0.20;;;;;;;6.86;100.00;101646.91;5073036;28;20048;-83
2021/11/06 03:17:16;;;;;;;0.30;0.30;;;;;;;6.84;100.00;101632.00;5082556;28;20412;-83
2021/11/06 03:19:50;;;;;;;0.30;0.30;;;;;;;6.87;100.00;101635.03;5068794;28;20797;-83
2021/11/06 03:22:20;;;;;;;0.30;0.30;;;;;;;6.90;100.00;101636.47;5064334;28;20044;-82
2021/11/06 03:24:53;;;;;;;0.30;0.30;;;;;;;6.88;100.00;101633.19;5068795;28;20052;-83
2021/11/06 03:27:26;;;;;;;0.20;0.20;;;;;;;6.89;100.00;101640.22;5061116;28;20049;-83
2021/11/06 03:29:55;;;;;;;0.25;0.25;;;;;;;6.95;100.00;101648.25;5081265;28;20061;-82
2021/11/06 03:32:28;;;;;;;0.20;0.20;;;;;;;6.95;100.00;101650.13;5067093;28;20033;-83
2021/11/06 03:35:01;;;;;;;0.30;0.30;;;;;;;6.97;100.00;101648.84;5060626;28;20057;-83
2021/11/06 03:37:37;;;;;;;0.20;0.20;;;;;;;6.95;100.00;101644.72;5065559;28;20330;-83
2021/11/06 03:40:13;;;;;;;0.20;0.20;;;;;;;6.91;100.00;101652.47;5067578;28;20046;-82
2021/11/06 03:42:47;;;;;;;0.20;0.20;;;;;;;6.97;100.00;101653.41;5066999;28;20354;-83
2021/11/06 03:45:20;;;;;;;0.30;0.30;;;;;;;6.95;100.00;101647.44;5062367;28;20044;-84
2021/11/06 03:47:54;;;;;;;0.38;0.30;;;;;;;6.93;100.00;101644.13;5058307;28;20052;-82
2021/11/06 03:50:22;;;;;;;0.30;0.30;;;;;;;6.92;100.00;101634.38;5062708;28;20056;-83
2021/11/06 03:52:57;;;;;;;0.20;0.20;;;;;;;6.89;100.00;101634.81;5054272;28;20536;-82
2021/11/06 03:55:25;;;;;;;0.20;0.20;;;;;;;6.89;100.00;101635.66;5062883;28;20047;-83
2021/11/06 03:57:58;;;;;;;0.20;0.20;;;;;;;6.89;100.00;101634.81;5060019;28;20064;-83
2021/11/06 04:00:31;;;;;;;0.20;0.20;;;;;;;6.91;100.00;101632.72;5079758;28;20051;-82
2021/11/06 04:03:05;;;;;;;0.20;0.20;;;;;;;6.91;100.00;101630.00;5084642;28;20052;-82
2021/11/06 04:05:38;;;;;;;0.30;0.30;;;;;;;6.93;100.00;101638.69;5063053;28;20044;-81
2021/11/06 04:08:13;;;;;;;0.20;0.20;;;;;;;6.88;100.00;101635.88;5074923;28;20040;-83
2021/11/06 04:10:46;;;;;;;0.30;0.30;;;;;;;6.79;100.00;101640.78;5072211;28;20044;-83
2021/11/06 04:13:19;;;;;;;0.20;0.20;;;;;;;6.81;100.00;101644.91;5070840;28;20451;-83
2021/11/06 04:15:52;;;;;;;0.20;0.20;;;;;;;6.78;100.00;101644.53;5068531;28;20123;-83
2021/11/06 04:18:25;;;;;;;0.30;0.30;;;;;;;6.78;100.00;101650.78;5071699;28;20036;-82
2021/11/06 04:20:59;;;;;;;0.30;0.30;;;;;;;6.77;100.00;101651.84;5063920;28;20060;-83
2021/11/06 04:23:33;;;;;;;0.20;0.20;;;;;;;6.78;100.00;101655.34;5074529;28;20051;-83
2021/11/06 04:26:08;;;;;;;0.20;0.20;;;;;;;6.87;100.00;101655.88;5094012;28;20048;-82
2021/11/06 04:28:36;;;;;;;0.30;0.30;;;;;;;6.83;100.00;101660.09;5073697;28;20523;-82
2021/11/06 04:31:10;;;;;;;0.25;0.25;;;;;;;6.84;100.00;101662.56;5063905;28;20049;-82
2021/11/06 04:33:43;;;;;;;0.20;0.20;;;;;;;6.85;100.00;101658.81;5083543;28;20488;-82
2021/11/06 04:36:16;;;;;;;0.20;0.20;;;;;;;6.88;100.00;101657.53;5068947;28;20056;-82
2021/11/06 04:38:51;;;;;;;0.30;0.30;;;;;;;6.88;100.00;101658.34;5071793;28;20061;-84
2021/11/06 04:41:19;;;;;;;0.20;0.20;;;;;;;6.87;100.00;101639.63;5071259;28;20533;-82
2021/11/06 04:43:48;;;;;;;0.20;0.20;;;;;;;6.77;100.00;101642.91;5070611;28;20044;-82
2021/11/06 04:46:21;;;;;;;0.25;0.25;;;;;;;6.77;100.00;101651.84;5079705;28;20044;-83
2021/11/06 04:48:54;;;;;;;0.20;0.20;;;;;;;6.74;100.00;101643.34;5071751;28;20040;-83
2021/11/06 04:51:28;;;;;;;0.28;0.28;;;;;;;6.70;100.00;101663.78;5100356;28;20048;-82
2021/11/06 04:54:03;;;;;;;0.30;0.30;;;;;;;6.71;100.00;101658.19;5063776;28;20048;-84
2021/11/06 04:56:36;;;;;;;0.20;0.20;;;;;;;6.79;100.00;101660.56;5069928;28;20045;-83
2021/11/06 04:59:10;;;;;;;0.30;0.30;;;;;;;6.75;100.00;101659.38;5069191;28;20522;-83
2021/11/06 05:01:43;;;;;;;0.30;0.30;;;;;;;6.64;100.00;101658.28;5067559;28;20044;-82
2021/11/06 05:04:16;;;;;;;0.20;0.20;;;;;;;6.63;100.00;101662.03;5070506;28;20396;-83
2021/11/06 05:06:49;;;;;;;0.30;0.30;;;;;;;6.69;100.00;101654.06;5065747;28;20044;-82
2021/11/06 05:09:24;;;;;;;0.20;0.20;;;;;;;6.63;100.00;101661.22;5067097;28;20048;-82
2021/11/06 05:11:52;;;;;;;0.20;0.20;;;;;;;6.66;100.00;101670.72;5071401;28;20044;-82
2021/11/06 05:14:25;;;;;;;0.20;0.20;;;;;;;6.67;100.00;101669.66;5066247;28;20051;-83
2021/11/06 05:16:59;;;;;;;0.20;0.20;;;;;;;6.73;100.00;101669.59;5070255;28;20400;-82
2021/11/06 05:19:32;;;;;;;0.20;0.20;;;;;;;6.69;100.00;101676.50;5071235;28;20518;-84
2021/11/06 05:22:07;;;;;;;0.20;0.20;;;;;;;6.70;100.00;101666.50;5063481;28;20374;-82
2021/11/06 05:24:42;;;;;;;0.20;0.20;;;;;;;6.76;100.00;101661.00;5080620;28;20447;-82
2021/11/06 05:27:10;;;;;;;0.30;0.30;;;;;;;6.72;100.00;101667.13;5069038;28;20048;-83
2021/11/06 05:29:43;;;;;;;0.20;0.20;;;;;;;6.73;100.00;101672.28;5063900;28;20071;-82
2021/11/06 05:32:16;;;;;;;0.20;0.20;;;;;;;6.72;100.00;101654.41;5071047;28;20051;-82
2021/11/06 05:34:50;;;;;;;0.20;0.20;;;;;;;6.69;100.00;101668.41;5067852;28;20048;-82
2021/11/06 05:37:23;;;;;;;0.35;0.35;;;;;;;6.72;100.00;101659.00;5068388;28;20066;-84
2021/11/06 05:39:57;;;;;;;0.30;0.30;;;;;;;6.75;100.00;101670.19;5087448;28;20461;-82
2021/11/06 05:42:32;;;;;;;0.20;0.20;;;;;;;6.72;100.00;101665.22;5082635;28;20063;-82
2021/11/06 05:45:00;;;;;;;0.28;0.28;;;;;;;6.70;100.00;101664.63;5070618;28;20043;-84
2021/11/06 05:47:33;;;;;;;0.25;0.25;;;;;;;6.71;100.00;101666.28;5070512;28;20055;-83
2021/11/06 05:50:09;;;;;;;0.20;0.20;;;;;;;6.74;100.00;101665.00;5063062;28;20048;-82
2021/11/06 05:52:43;;;;;;;0.25;0.25;;;;;;;6.64;100.00;101662.84;5070273;28;20055;-82
2021/11/06 05:55:18;;;;;;;0.20;0.20;;;;;;;6.73;100.00;101675.00;5063804;28;20051;-81
2021/11/06 05:57:51;;;;;;;0.20;0.20;;;;;;;6.72;100.00;101670.63;5066172;28;20049;-83
2021/11/06 06:00:24;;;;;;;0.20;0.20;;;;;;;6.72;100.00;101669.81;5072112;28;20044;-83
2021/11/06 06:02:53;;;;;;;0.28;0.28;;;;;;;6.75;100.00;101670.19;5065672;28;20480;-84
2021/11/06 06:05:26;;;;;;;0.20;0.20;;;;;;;6.66;100.00;101671.56;5067174;28;20040;-83
2021/11/06 06:07:59;;;;;;;0.20;0.20;;;;;;;6.72;100.00;101675.22;5067180;28;20052;-82
2021/11/06 06:10:28;;;;;;;0.20;0.20;;;;;;;6.66;100.00;101678.84;5064816;28;20071;-83
2021/11/06 06:13:02;;;;;;;0.20;0.20;;;;;;;6.64;100.00;101674.50;5061954;28;20052;-83
2021/11/06 06:15:35;;;;;;;0.30;0.30;;;;;;;6.64;100.00;101674.50;5064205;28;20045;-83
2021/11/06 06:18:08;;;;;;;0.20;0.20;;;;;;;6.69;100.00;101681.09;5068979;28;20497;-84
2021/11/06 06:20:41;;;;;;;0.25;0.25;;;;;;;6.62;100.00;101671.19;5064269;28;20492;-84
2021/11/06 06:23:15;;;;;;;0.20;0.20;;;;;;;6.67;100.00;101670.50;5065419;28;20041;-84
2021/11/06 06:25:50;;;;;;;0.30;0.30;;;;;;;6.70;100.00;101680.03;5083328;28;20390;-84
2021/11/06 06:28:23;;;;;;;0.28;0.28;;;;;;;6.66;100.00;101686.94;5068053;28;20488;-83
2021/11/06 06:30:56;;;;;;;0.22;0.22;;;;;;;6.70;100.00;101680.88;5065099;28;20466;-83
2021/11/06 06:33:30;;;;;;;0.20;0.20;;;;;;;6.69;100.00;101681.09;5064558;28;20044;-83
2021/11/06 06:36:03;;;;;;;0.20;0.20;;;;;;;6.73;100.00;101691.22;5068666;28;20051;-82
2021/11/06 06:38:37;;;;;;;0.20;0.20;;;;;;;6.75;100.00;101696.41;5078349;28;20048;-83
2021/11/06 06:41:12;;;;;;;0.20;0.20;;;;;;;6.87;100.00;101691.88;5061400;28;20048;-82
2021/11/06 06:43:45;;;;;;;0.20;0.20;;;;;;;6.76;100.00;101693.47;5065505;28;20051;-83
2021/11/06 06:46:18;;;;;;;0.38;0.38;;;;;;;6.76;100.00;101690.75;5060865;28;20060;-84
2021/11/06 06:48:52;;;;;;;0.20;0.20;;;;;;;6.76;100.00;101681.84;5063922;28;20507;-83
2021/11/06 06:51:25;;;;;;;0.30;0.30;;;;;;;6.68;100.00;101682.16;5064726;28;20045;-83
2021/11/06 06:53:53;;;;;;;0.30;0.30;;;;;;;6.87;100.00;101683.75;5081208;28;20051;-83
2021/11/06 06:56:28;;;;;;;0.20;0.20;;;;;;;6.76;100.00;101689.94;5066680;28;20484;-84
2021/11/06 06:59:01;;;;;;;0.20;0.20;;;;;;;6.75;100.00;101694.53;5065734;28;20079;-84
2021/11/06 07:01:30;;;;;;;0.20;0.20;;;;;;;6.82;100.00;101691.72;5067433;28;20419;-83
2021/11/06 07:03:58;;;;;;;0.30;0.30;;;;;;;6.81;100.00;101690.09;5071625;28;20044;-83
2021/11/06 07:06:31;;;;;;;0.20;0.20;;;;;;;6.80;100.00;101704.66;5066158;28;20040;-86
2021/11/06 07:09:00;;;;;;;0.20;0.20;;;;;;;6.89;100.00;101694.34;5066873;28;20405;-83
2021/11/06 07:11:34;;;;;;;0.22;0.22;;;;;;;6.86;100.00;101709.16;5071900;28;20499;-84
2021/11/06 07:14:08;;;;;;;0.20;0.20;;;;;;;6.92;100.00;101715.56;5067595;28;20404;-84
2021/11/06 07:16:41;;;;;;;0.20;0.20;;;;;;;6.87;100.00;101707.28;5067915;28;20051;-85
2021/11/06 07:19:14;;;;;;;0.20;0.20;;;;;;;6.88;100.00;101715.16;5064846;28;20048;-83
2021/11/06 07:21:43;;;;;;;0.15;0.15;;;;;;;6.89;100.00;101706.00;5065164;28;20044;-81
2021/11/06 07:24:16;;;;;;;0.20;0.20;;;;;;;6.85;100.00;101698.56;5067762;28;20048;-83
2021/11/06 07:26:45;;;;;;;0.20;0.20;;;;;;;6.93;100.00;101711.75;5070024;28;20047;-84
2021/11/06 07:29:19;;;;;;;0.20;0.20;;;;;;;6.91;100.00;101713.88;5071299;28;20047;-84
2021/11/06 07:31:52;;;;;;;0.20;0.20;;;;;;;6.88;100.00;101707.06;5093224;27;20057;-83
2021/11/06 07:34:20;;;;;;;0.25;0.25;;;;;;;7.01;100.00;101722.25;5067191;28;20420;-85
2021/11/06 07:36:53;;;;;;;0.22;0.22;;;;;;;7.02;100.00;101721.22;5066637;28;20048;-83
2021/11/06 07:39:27;;;;;;;0.20;0.20;;;;;;;6.94;100.00;101724.25;5066143;28;20041;-84
2021/11/06 07:42:02;;;;;;;0.30;0.30;;;;;;;7.01;100.00;101721.44;5066454;28;20052;-85
2021/11/06 07:44:30;;;;;;;0.20;0.20;;;;;;;7.02;100.00;101709.56;5064310;28;20489;-82
2021/11/06 07:47:04;;;;;;;0.30;0.30;;;;;;;6.97;100.00;101715.66;5063040;28;20400;-85
2021/11/06 07:49:37;;;;;;;0.30;0.30;;;;;;;6.99;100.00;101710.88;5069662;28;20535;-85
2021/11/06 07:52:05;;;;;;;0.20;0.20;;;;;;;7.02;100.00;101715.00;5065064;28;20040;-85
2021/11/06 07:54:33;;;;;;;0.30;0.30;;;;;;;7.00;100.00;101703.56;5070924;28;20049;-84
2021/11/06 07:57:09;;;;;;;0.20;0.20;;;;;;;7.05;100.00;101706.41;5083455;28;20067;-85
2021/11/06 07:59:42;;;;;;;0.20;0.20;;;;;;;7.01;100.00;101713.34;5068782;28;20057;-83
2021/11/06 08:02:17;;;;;;;0.30;0.30;;;;;;;7.01;100.00;101705.22;5068032;28;20701;-86
2021/11/06 08:04:50;;;;;;;0.30;0.30;;;;;;;7.06;100.00;101708.06;5081782;28;20075;-84
2021/11/06 08:07:26;;;;;;;0.28;0.28;;;;;;;7.09;100.00;101708.41;5068622;28;20044;-85
2021/11/06 08:10:00;;;;;;;0.20;0.20;;;;;;;7.17;100.00;101703.72;5069455;28;20052;-86
2021/11/06 08:12:37;;;;;;;0.20;0.20;;;;;;;7.12;100.00;101707.94;5072476;28;20135;-89
2021/11/06 08:15:13;;;;;;;0.30;0.30;;;;;;;7.10;100.00;101707.34;5074117;28;20078;-88
2021/11/06 08:17:47;;;;;;;0.20;0.20;;;;;;;7.27;100.00;101706.69;5075608;28;20130;-82
2021/11/06 08:20:22;;;;;;;0.20;0.20;;;;;;;7.25;100.00;101703.38;5068956;28;20056;-82
2021/11/06 08:22:56;;;;;;;0.30;0.30;;;;;;;7.15;100.00;101703.94;5064724;28;20052;-83
2021/11/06 08:25:29;;;;;;;0.20;0.20;;;;;;;7.10;100.00;101711.97;5067468;28;20037;-84
2021/11/06 08:27:59;;;;;;;0.20;0.20;;;;;;;7.14;100.00;101711.25;5067351;28;20052;-83
2021/11/06 08:30:28;;;;;;;0.20;0.20;;;;;;;7.23;100.00;101716.34;5075272;28;20507;-83
2021/11/06 08:33:02;;;;;;;0.28;0.28;;;;;;;7.17;100.00;101711.84;5069178;28;20051;-84
2021/11/06 08:35:35;;;;;;;0.22;0.22;;;;;;;7.19;100.00;101715.97;5076396;28;20049;-84
2021/11/06 08:38:04;;;;;;;0.20;0.20;;;;;;;7.23;100.00;101700.91;5068205;28;20358;-84
2021/11/06 08:40:38;;;;;;;0.30;0.30;;;;;;;7.27;100.00;101696.69;5067524;28;20130;-84
2021/11/06 08:43:12;;;;;;;0.30;0.30;;;;;;;7.40;100.00;101692.94;5079125;28;20048;-84
2021/11/06 08:45:47;;;;;;;0.30;0.30;;;;;;;7.31;100.00;101689.75;5063329;28;20511;-85
2021/11/06 08:48:20;;;;;;;0.20;0.20;;;;;;;7.40;100.00;101692.09;5063123;28;20390;-83
2021/11/06 08:50:54;;;;;;;0.30;0.30;;;;;;;7.45;100.00;101692.25;5066704;28;20044;-83
2021/11/06 08:53:27;;;;;;;0.30;0.30;;;;;;;7.53;100.00;101702.72;5065681;28;20052;-83
2021/11/06 08:56:00;;;;;;;0.30;0.30;;;;;;;7.65;100.00;101700.00;5069792;28;20032;-84
2021/11/06 08:58:35;;;;;;;0.30;0.30;;;;;;;7.57;100.00;101703.09;5075457;28;20504;-83
2021/11/06 09:01:04;;;;;;;0.20;0.20;;;;;;;7.51;100.00;101707.53;5070630;28;20059;-82
2021/11/06 09:03:37;;;;;;;0.30;0.30;;;;;;;7.60;100.00;101711.56;5070623;28;20036;-84
2021/11/06 09:06:10;;;;;;;0.30;0.30;;;;;;;7.64;100.00;101710.03;5073790;28;20032;-81
2021/11/06 09:08:49;;;;;;;0.30;0.30;;;;;;;7.57;100.00;101703.91;5084717;28;20041;-81
2021/11/06 09:11:22;;;;;;;0.20;0.20;;;;;;;7.72;100.00;101717.00;5064266;28;20041;-84
2021/11/06 09:13:57;;;;;;;0.22;0.22;;;;;;;7.76;100.00;101715.47;5074249;28;20375;-83
2021/11/06 09:16:30;;;;;;;0.20;0.20;;;;;;;7.77;100.00;101705.44;5066864;28;20047;-83
2021/11/06 09:19:05;;;;;;;0.20;0.20;;;;;;;7.72;100.00;101710.75;5080666;28;20048;-82
2021/11/06 09:21:39;;;;;;;0.20;0.20;;;;;;;7.75;100.00;101715.72;5083125;28;20052;-81
2021/11/06 09:24:08;;;;;;;0.30;0.30;;;;;;;7.74;100.00;101712.16;5068439;28;20417;-82
2021/11/06 09:26:38;;;;;;;0.20;0.20;;;;;;;7.69;100.00;101717.44;5069968;28;20041;-84
2021/11/06 09:29:08;;;;;;;0.28;0.28;;;;;;;7.78;100.00;101713.34;5067156;28;20497;-84
2021/11/06 09:31:37;;;;;;;0.20;0.20;;;;;;;7.76;100.00;101720.88;5067634;28;20075;-84
2021/11/06 09:34:06;;;;;;;0.30;0.30;;;;;;;7.86;100.00;101728.44;5060991;28;20045;-84
2021/11/06 09:36:39;;;;;;;0.30;0.30;;;;;;;7.76;100.00;101723.59;5083469;28;20044;-82
2021/11/06 09:39:11;;;;;;;0.20;0.20;;;;;;;7.72;100.00;101708.88;5083507;28;20053;-80
2021/11/06 09:41:44;;;;;;;0.30;0.30;;;;;;;7.77;100.00;101719.81;5063709;28;20057;-84
2021/11/06 09:44:14;;;;;;;0.30;0.30;;;;;;;7.89;100.00;101711.69;5071496;28;20459;-83
2021/11/06 09:46:47;;;;;;;0.20;0.20;;;;;;;7.90;100.00;101715.22;5078560;28;20052;-81
2021/11/06 09:49:21;;;;;;;0.30;0.30;;;;;;;7.87;100.00;101721.13;5074989;28;20060;-83
2021/11/06 09:51:54;;;;;;;0.20;0.20;;;;;;;7.84;100.00;101708.84;5060930;28;20055;-83
2021/11/06 09:54:28;;;;;;;0.30;0.30;;;;;;;8.00;100.00;101721.69;5061127;28;20040;-84
2021/11/06 09:56:56;;;;;;;0.28;0.28;;;;;;;7.96;100.00;101708.88;5072985;28;20052;-82
2021/11/06 09:59:32;;;;;;;0.30;0.30;;;;;;;7.93;100.00;101709.34;5067413;28;20055;-85
2021/11/06 10:02:06;;;;;;;0.20;0.20;;;;;;;8.05;100.00;101706.59;5065411;28;20052;-82
2021/11/06 10:04:39;;;;;;;0.20;0.20;;;;;;;7.93;100.00;101714.75;5095811;28;20048;-84
2021/11/06 10:07:20;;;;;;;0.20;0.20;;;;;;;7.89;100.00;101711.69;5059385;28;20588;-85
2021/11/06 10:09:56;;;;;;;0.30;0.30;;;;;;;7.90;100.00;101709.78;5066891;28;20059;-85
2021/11/06 10:12:44;;;;;;;0.30;0.30;;;;;;;7.95;100.00;101707.22;5067873;28;20381;-84
2021/11/06 10:15:21;;;;;;;0.20;0.20;;;;;;;7.91;100.00;101709.59;5058013;28;20044;-81
2021/11/06 10:17:49;;;;;;;0.30;0.30;;;;;;;7.93;100.00;101699.31;5048187;28;20048;-83
2021/11/06 10:20:20;;;;;;;0.20;0.20;;;;;;;8.02;100.00;101690.81;5047992;28;20061;-84
2021/11/06 10:22:54;;;;;;;0.28;0.28;;;;;;;8.05;100.00;101679.50;5043735;28;20051;-85
2021/11/06 10:25:24;;;;;;;0.30;0.30;;;;;;;8.10;100.00;101685.03;5038064;28;20780;-83
2021/11/06 10:27:54;;;;;;;0.30;0.30;;;;;;;8.25;100.00;101690.78;5037047;28;20072;-83
2021/11/06 10:30:32;;;;;;;0.30;0.30;;;;;;;8.33;100.00;101686.88;5032979;28;20060;-82
2021/11/06 10:33:08;;;;;;;0.30;0.30;;;;;;;8.11;100.00;101678.56;5039324;28;20048;-82
2021/11/06 10:35:44;;;;;;;0.20;0.20;;;;;;;8.21;100.00;101677.94;5060474;28;20053;-83
2021/11/06 10:38:15;;;;;;;0.30;0.30;;;;;;;8.20;100.00;101668.16;5043030;28;20049;-82
2021/11/06 10:40:46;;;;;;;0.30;0.30;;;;;;;8.24;100.00;101680.16;5063394;28;20052;-82
2021/11/06 10:43:21;;;;;;;0.20;0.20;;;;;;;8.19;100.00;101656.50;5046336;28;20544;-82
2021/11/06 10:45:58;;;;;;;0.30;0.30;;;;;;;8.38;100.00;101661.75;5042771;28;20420;-83
2021/11/06 10:48:35;;;;;;;0.30;0.30;;;;;;;8.40;100.00;101663.16;5079775;28;20040;-84
2021/11/06 10:51:06;;;;;;;0.20;0.20;;;;;;;8.38;100.00;101661.75;5064546;28;20052;-83
2021/11/06 10:53:45;;;;;;;0.30;0.30;;;;;;;8.36;100.00;101658.47;5073227;28;20046;-84
2021/11/06 10:56:34;;;;;;;0.20;0.20;;;;;;;8.35;100.00;101654.91;5056741;28;20500;-82
2021/11/06 10:59:11;;;;;;;0.30;0.30;;;;;;;8.39;100.00;101656.06;5067998;28;20044;-83
2021/11/06 11:01:52;;;;;;;0.25;0.25;;;;;;;8.39;100.00;101653.34;5068339;28;20056;-84
2021/11/06 11:04:26;;;;;;;0.25;0.25;;;;;;;8.48;100.00;101651.94;5095946;27;20052;-83
2021/11/06 11:07:00;;;;;;;0.30;0.30;;;;;;;8.44;100.00;101652.66;5061346;28;20053;-82
2021/11/06 11:09:37;;;;;;;0.20;0.20;;;;;;;8.50;100.00;101638.94;5061376;28;20052;-83
2021/11/06 11:12:16;;;;;;;0.20;0.20;;;;;;;8.48;100.00;101637.56;5067481;28;20051;-83
2021/11/06 11:14:54;;;;;;;0.20;0.20;;;;;;;8.48;100.00;101638.38;5069155;28;20062;-83
2021/11/06 11:17:43;;;;;;;0.20;0.20;;;;;;;8.39;100.00;101636.25;5060422;28;20048;-80
2021/11/06 11:20:28;;;;;;;0.20;0.20;;;;;;;8.35;100.00;101635.91;5066457;28;20057;-82
2021/11/06 11:23:11;;;;;;;0.30;0.30;;;;;;;8.32;100.00;101644.53;5079469;28;20055;-81
2021/11/06 11:25:45;;;;;;;0.20;0.20;;;;;;;8.20;100.00;101628.28;5060068;28;20265;-85
2021/11/06 11:28:18;;;;;;;0.30;0.30;;;;;;;8.28;100.00;101641.47;5062493;28;20058;-82
2021/11/06 11:30:46;;;;;;;0.30;0.30;;;;;;;8.22;100.00;101626.19;5064931;28;20060;-83
2021/11/06 11:33:21;;;;;;;0.20;0.20;;;;;;;8.16;100.00;101627.97;5060242;28;20037;-83
2021/11/06 11:35:55;;;;;;;0.20;0.20;;;;;;;8.28;100.00;101622.50;5074880;28;20063;-79
2021/11/06 11:38:29;;;;;;;0.30;0.30;;;;;;;8.25;100.00;101622.97;5065972;28;20036;-83
2021/11/06 11:41:26;;;;;;;0.20;0.20;;;;;;;8.22;100.00;101622.66;5066149;28;20488;-83
2021/11/06 11:44:17;;;;;;;0.30;0.30;;;;;;;8.25;100.00;101619.47;5080817;28;20063;-84
2021/11/06 11:46:54;;;;;;;0.20;0.20;;;;;;;8.31;100.00;101622.03;5067299;28;20059;-81
2021/11/06 11:49:31;;;;;;;0.30;0.30;;;;;;;8.32;100.00;101615.53;5063712;28;20415;-82
2021/11/06 11:52:22;;;;;;;0.20;0.20;;;;;;;8.28;100.00;101610.84;5063569;28;20071;-83